In Rescue
 
Open Full Screen Window  High Contrast Mode
Wind Gusting 00 knots
09
May 13, 2021 11:13 AM CDT
Weather Information
Wind Direction
  190 °
Wind Speed
  09 kt (10 mph)
Wind Gust
  00 kt (0 mph)
Altimeter
30.27 in
Visibility
10 SM
Temperature
19° C
66° F
Dewpoint
-06° C
21° F
Humidity
18%
1hr Rain Fall
00.00 in.
24hr Rain Fall
00.00 in.
Sky Condition
Broken @ 11,000 ft
VFR

METAR KBFW 131613Z AUTO 19009KT 10SM BKN110 19/M06 A3027 RMK AO2

FAA Disclaimer: The data displayed is for advisory purposes only and is not to be used for flight planning or operations.